Cedaredge, CO

01:32 AM MDT am 31. Oktober 2014 (GMT -0600)
Montrose Regional | Change Station
CLOSE
Current Station
Flughafen
Location: Montrose,
Höhe: 5758 ft
Wetterstationen in der Umgebung

Höhe 5758 ft 38.51 °N, 107.90 °W | Updated 39 minutes ago

Heiter
Heiter
38 °F
gefühlte 33 °F
N
7
Wind Wechselnd Wind aus Süd-Südost

Heute
Max. -- | schwach -- °F
--% Regenrisiko
Gestern
Max. -- | schwach -- °F
Precip. -- inch
7:37 AM 6:12 PM
Erstes Viertel, 52% visible
Druck 30.18 inch
Sichtweite 10.0 Meilen
Wolken Heiter
Windchill 33 °F
Taupunkt 25 °F
Feuchtigkeit 60%
Regen 0.00 inch
Schneehöhe Nicht verfügbar..
UV 0 von 12
Pollen .70 von 12
Luftqualität Nicht verfügbar..
Flu Activity Nicht verfügbar..
METAR KMTJ 310653Z AUTO 16006KT 10SM CLR 03/M04 A3029 RMK AO2 SLP220 T00331039 401941011

More Conditions Fewer Conditions

Druck 30.18 inch
Sichtweite 10.0 Meilen
Wolken Heiter
Windchill 33 °F
Taupunkt 25 °F
Feuchtigkeit 60%
Regen 0.00 inch
Schneehöhe Nicht verfügbar..
UV 0 von 12
Pollen .70 von 12
Luftqualität Nicht verfügbar..
Flu Activity Nicht verfügbar..
METAR KMTJ 310653Z AUTO 16006KT 10SM CLR 03/M04 A3029 RMK AO2 SLP220 T00331039 401941011

More Conditions Fewer Conditions

10-Day Weather Forecast

Almanac

Astronomie

Oct. 31, 2014 Aufgang Untergang
Genaue Zeit
Bürgerliche Dämmerung
Nautische Dämmerung
Astronomische Dämmerung
Mond
Länge des sichtbaren Lichts
Tageslänge
Tomorrow will be .
, % of the Moon is Illuminated

Heutige Rekorde

State Highs State Lows

Community

WunderPhotos

Upload Photos

1,766,573 Fotos hochgeladen!

WunderBlogs® & News

Nearby

Luftqualität

  Luftqualität LQ Index Schadstoff
Not available.

Schneehöhe

Station Depth Höhe

Erdbebenaktivität

Stadt Distance Mag. Time & Date
Minimum magnitude displayed is 2.5.

küstennahe Wassertemperaturen

Ort Temperatur

Wetterstationen in der Umgebung